Date,TemperatureHighF,TemperatureAvgF,TemperatureLowF,DewpointHighF,DewpointAvgF,DewpointLowF,HumidityHigh,HumidityAvg,HumidityLow,PressureMaxIn,PressureMinIn,WindSpeedMaxMPH,WindSpeedAvgMPH,GustSpeedMaxMPH,PrecipitationSumIn
2013-11-1,69.8,61.9,42.8,63.6,56.0,41.5,95,82,52,29.80,29.54,9,3,28,0.36
2013-11-2,65.8,49.8,37.9,50.9,43.7,36.1,96,82,51,29.83,29.66,3,0,12,0.00
2013-11-3,48.6,41.7,25.5,42.9,31.7,19.4,95,69,43,30.50,29.83,6,2,14,0.00
2013-11-4,45.6,33.4,20.4,24.7,20.5,16.4,91,62,32,30.69,30.50,6,1,15,0.00
2013-11-5,55.0,42.1,26.4,41.5,34.6,23.6,91,76,56,30.69,30.50,3,1,9,0.00
2013-11-6,61.4,52.8,42.5,49.4,45.7,39.5,90,78,60,30.52,30.09,5,1,11,0.00
2013-11-7,58.0,50.0,33.8,55.7,46.2,30.9,95,87,70,30.09,29.81,5,1,13,0.18
2013-11-8,46.7,39.7,28.4,36.9,30.3,25.8,92,70,51,30.27,29.99,7,2,18,0.05
2013-11-9,49.9,36.9,23.1,33.1,27.9,21.6,95,72,41,30.33,30.02,4,1,12,0.00
2013-11-10,56.6,44.6,32.4,37.8,32.6,29.2,92,65,46,30.11,29.89,7,3,20,0.00
2013-11-11,51.9,43.2,31.3,35.7,30.3,24.6,78,61,48,30.25,29.99,6,2,17,0.00
2013-11-12,48.1,34.4,25.4,36.7,22.6,15.3,83,62,51,30.35,29.96,7,2,20,0.00
2013-11-13,38.1,28.9,20.6,21.1,16.0,12.2,86,60,39,30.44,30.32,7,2,18,0.00
2013-11-14,51.3,36.2,22.3,22.8,20.1,18.0,87,55,27,30.32,30.21,7,2,15,0.00
2013-11-15,56.8,36.2,20.5,30.3,24.0,17.2,90,66,28,30.29,30.19,4,1,8,0.00
2013-11-16,60.8,45.9,32.3,46.6,40.0,27.4,95,81,51,30.36,30.28,3,0,7,0.04
2013-11-17,62.1,54.4,47.3,57.6,52.0,45.5,95,92,84,30.29,29.78,4,1,11,0.02
2013-11-18,62.9,56.3,46.4,60.0,42.2,27.9,94,62,34,29.85,29.63,9,3,21,0.33
2013-11-19,46.4,40.5,30.8,30.0,25.2,21.4,68,54,47,30.40,29.85,7,4,19,0.00
2013-11-20,45.5,33.0,19.8,21.3,18.6,11.4,88,58,26,30.65,30.40,6,2,16,0.00
2013-11-21,49.7,35.5,17.0,38.0,27.8,14.4,93,75,57,30.64,30.42,4,0,10,0.00
2013-11-22,53.4,48.3,43.0,48.4,44.8,37.8,94,88,81,30.42,29.97,4,1,12,0.03
2013-11-23,51.8,38.4,26.2,47.3,25.4,6.8,87,60,41,30.12,29.96,8,3,24,0.01
2013-11-24,27.1,22.8,19.6,10.2,3.9,0.8,56,44,37,30.45,30.10,11,5,28,0.00
2013-11-25,34.5,25.7,13.9,17.1,12.7,6.1,83,58,45,30.53,30.36,5,2,13,0.00
2013-11-26,43.6,32.2,28.3,41.9,24.4,15.2,95,74,49,30.36,29.74,4,1,9,0.79
2013-11-27,52.1,40.7,30.5,50.7,36.7,19.1,95,86,60,29.83,29.43,6,2,22,1.23
2013-11-28,33.9,28.5,22.0,24.0,16.1,11.7,82,61,40,30.50,29.83,7,3,22,0.00
2013-11-29,36.1,28.0,16.3,24.4,20.0,13.4,89,73,53,30.78,30.49,3,0,11,0.00
2013-11-30,34.7,25.5,14.3,27.8,18.4,11.6,91,75,53,30.78,30.42,3,1,10,0.00